Time;durP1;ratioP1;P1;durP2;ratioP2;P2;SDS_P1;SDS_P2;PMS_P1;PMS_P2;Temp;Humidity;BMP_temperature;BMP_pressure;BME280_temperature;BME280_humidity;BME280_pressure;Samples;Min_cycle;Max_cycle;Signal;HPM_P1;HPM_P2
2023/09/06 00:00:33;;;;;;;8.90;5.70;;;;;;;18.07;90.02;98509.22;4104639;28;20665;-90
2023/09/06 00:02:41;;;;;;;7.27;5.67;;;;;;;18.06;90.15;98504.91;4124452;28;20657;-90
2023/09/06 00:04:49;;;;;;;6.67;5.40;;;;;;;18.05;90.60;98511.13;4102142;28;21117;-90
2023/09/06 00:06:55;;;;;;;9.67;6.17;;;;;;;18.05;90.54;98516.41;4125664;28;20730;-89
2023/09/06 00:09:01;;;;;;;7.10;6.30;;;;;;;18.00;90.08;98510.72;4108409;28;20641;-90
2023/09/06 00:11:13;;;;;;;8.03;5.67;;;;;;;17.99;91.01;98510.88;4115324;28;20660;-90
2023/09/06 00:13:21;;;;;;;11.03;6.13;;;;;;;17.94;89.79;98508.66;4100971;28;20727;-90
2023/09/06 00:15:26;;;;;;;6.50;5.70;;;;;;;17.93;90.82;98506.16;4105592;28;20760;-90
2023/09/06 00:17:49;;;;;;;7.20;6.03;;;;;;;17.93;90.11;98511.44;4122964;28;20716;-90
2023/09/06 00:19:53;;;;;;;7.10;5.80;;;;;;;17.91;89.70;98518.66;4120149;28;20629;-89
2023/09/06 00:22:20;;;;;;;6.87;5.80;;;;;;;17.83;90.33;98510.63;4124131;28;21060;-90
2023/09/06 00:24:27;;;;;;;8.00;6.20;;;;;;;17.81;90.03;98519.63;4112074;28;20631;-90
2023/09/06 00:26:33;;;;;;;7.27;5.60;;;;;;;17.78;90.68;98519.91;4105595;28;20653;-90
2023/09/06 00:28:46;;;;;;;6.67;5.97;;;;;;;17.71;91.41;98510.88;4105405;28;20651;-90
2023/09/06 00:30:50;;;;;;;6.60;5.33;;;;;;;17.70;91.23;98510.03;4109649;28;20624;-90
2023/09/06 00:32:54;;;;;;;7.97;6.23;;;;;;;17.70;89.92;98515.31;4124139;28;20665;-90
2023/09/06 00:34:58;;;;;;;6.20;5.53;;;;;;;17.68;90.00;98511.13;4116841;28;20658;-90
2023/09/06 00:37:13;;;;;;;8.63;6.27;;;;;;;17.65;90.55;98509.63;4122463;28;20633;-90
2023/09/06 00:39:18;;;;;;;6.97;5.87;;;;;;;17.62;90.81;98509.91;4120422;28;20641;-90
2023/09/06 00:41:24;;;;;;;6.70;5.47;;;;;;;17.63;91.35;98505.47;4121700;28;20736;-90
2023/09/06 00:43:32;;;;;;;7.47;6.00;;;;;;;17.62;90.78;98496.72;4122166;28;21376;-90
2023/09/06 00:45:44;;;;;;;7.50;6.10;;;;;;;17.62;89.63;98501.13;4116386;28;20685;-90
2023/09/06 00:47:57;;;;;;;7.37;6.10;;;;;;;17.53;89.25;98496.72;4116408;28;20765;-90
2023/09/06 00:50:02;;;;;;;6.67;5.97;;;;;;;17.47;91.16;98490.19;4119292;28;20996;-89
2023/09/06 00:52:08;;;;;;;8.97;6.80;;;;;;;17.45;90.27;98493.09;4126518;28;20641;-90
2023/09/06 00:54:25;;;;;;;8.17;6.23;;;;;;;17.44;91.48;98494.91;4119774;28;20720;-90
2023/09/06 00:56:30;;;;;;;8.07;6.57;;;;;;;17.45;89.76;98487.81;4121734;28;20704;-90
2023/09/06 00:58:37;;;;;;;9.83;6.50;;;;;;;17.39;90.25;98489.19;4135764;28;20648;-90
2023/09/06 01:00:48;;;;;;;7.67;6.83;;;;;;;17.39;91.56;98488.34;4102393;28;20647;-90
2023/09/06 01:02:53;;;;;;;7.53;6.40;;;;;;;17.36;89.83;98489.44;4109347;28;20666;-90
2023/09/06 01:04:58;;;;;;;8.93;6.60;;;;;;;17.32;89.85;98493.34;4118822;28;20684;-89
2023/09/06 01:07:04;;;;;;;8.03;7.00;;;;;;;17.29;90.43;98492.78;4120877;28;20645;-89
2023/09/06 01:09:09;;;;;;;9.30;6.73;;;;;;;17.22;91.14;98497.75;4124665;28;20629;-91
2023/09/06 01:11:21;;;;;;;7.93;6.50;;;;;;;17.16;91.36;98497.44;4118236;28;20747;-89
2023/09/06 01:13:34;;;;;;;8.00;6.67;;;;;;;17.09;91.31;98498.94;4108385;28;20717;-89
2023/09/06 01:15:47;;;;;;;7.43;6.43;;;;;;;17.02;92.23;98506.56;4109819;28;20737;-89
2023/09/06 01:18:11;;;;;;;15.00;7.57;;;;;;;17.00;90.80;98507.66;4124066;28;21202;-89
2023/09/06 01:20:39;;;;;;;8.20;7.00;;;;;;;16.96;92.11;98501.00;4132567;28;20633;-88
2023/09/06 01:23:06;;;;;;;7.67;6.60;;;;;;;16.93;92.37;98506.53;4121906;28;21189;-89
2023/09/06 01:25:31;;;;;;;9.03;7.30;;;;;;;16.89;91.96;98509.56;4126093;28;21138;-89
2023/09/06 01:27:54;;;;;;;8.10;6.30;;;;;;;16.83;92.95;98505.66;4114751;28;21230;-89
2023/09/06 01:30:19;;;;;;;8.40;6.83;;;;;;;16.79;90.76;98498.97;4139661;28;20635;-89
2023/09/06 01:32:42;;;;;;;8.00;6.47;;;;;;;16.75;93.11;98507.31;4122068;28;20630;-90
2023/09/06 01:35:08;;;;;;;9.67;6.97;;;;;;;16.76;92.59;98507.13;4118033;28;20736;-90
2023/09/06 01:37:34;;;;;;;9.20;6.90;;;;;;;16.73;92.94;98504.81;4119947;28;20641;-89
2023/09/06 01:39:58;;;;;;;8.47;7.27;;;;;;;16.73;92.48;98503.94;4111911;28;20628;-90
2023/09/06 01:42:22;;;;;;;10.20;6.77;;;;;;;16.66;91.58;98500.19;4121801;28;20640;-90
2023/09/06 01:44:46;;;;;;;9.33;6.97;;;;;;;16.59;92.32;98494.59;4133924;28;21266;-90
2023/09/06 01:46:51;;;;;;;7.90;6.90;;;;;;;16.47;91.47;98486.91;4125378;28;20640;-90
2023/09/06 01:49:15;;;;;;;9.10;6.40;;;;;;;16.48;92.04;98493.00;4108939;28;20621;-90
2023/09/06 01:51:32;;;;;;;9.30;7.10;;;;;;;16.43;91.39;98489.94;4109821;28;20645;-90
2023/09/06 01:53:55;;;;;;;9.63;6.50;;;;;;;16.42;92.54;98498.78;4110284;28;20699;-90
2023/09/06 01:56:01;;;;;;;9.50;6.83;;;;;;;16.42;92.84;98497.00;4110767;28;21212;-90
2023/09/06 01:58:25;;;;;;;8.07;6.90;;;;;;;16.43;92.18;98489.94;4108205;28;21173;-90
2023/09/06 02:00:37;;;;;;;8.67;6.77;;;;;;;16.44;91.96;98492.44;4109973;28;20625;-90
2023/09/06 02:03:01;;;;;;;8.80;6.87;;;;;;;16.43;93.00;98484.69;4127064;28;21303;-90
2023/09/06 02:05:24;;;;;;;6.87;6.17;;;;;;;16.48;92.94;98485.09;4125364;28;21022;-90
2023/09/06 02:07:48;;;;;;;7.60;6.50;;;;;;;16.52;92.03;98489.97;4111566;28;20632;-90
2023/09/06 02:10:11;;;;;;;9.60;6.87;;;;;;;16.52;90.89;98495.25;4111394;28;20691;-89
2023/09/06 02:12:34;;;;;;;7.80;6.90;;;;;;;16.51;92.79;98483.06;4124490;28;21580;-90
2023/09/06 02:14:58;;;;;;;8.90;6.90;;;;;;;16.50;91.69;98491.09;4111542;28;20668;-89
2023/09/06 02:17:12;;;;;;;9.40;7.17;;;;;;;16.50;90.78;98492.75;4127774;28;20654;-90
2023/09/06 02:19:36;;;;;;;9.70;6.63;;;;;;;16.47;90.28;98491.34;4121930;28;20628;-90
2023/09/06 02:22:00;;;;;;;9.47;7.50;;;;;;;16.47;92.66;98494.81;4119168;28;20639;-90
2023/09/06 02:24:23;;;;;;;10.07;7.60;;;;;;;16.49;91.17;98494.69;4108398;28;22523;-89
2023/09/06 02:26:29;;;;;;;9.43;8.07;;;;;;;16.49;92.66;98484.16;4107528;28;20644;-90
2023/09/06 02:28:44;;;;;;;8.83;7.30;;;;;;;16.49;91.92;98481.53;4107420;28;20640;-90
2023/09/06 02:31:04;;;;;;;11.13;8.00;;;;;;;16.43;91.53;98487.31;4111537;28;20641;-89
2023/09/06 02:33:16;;;;;;;7.90;7.10;;;;;;;16.40;93.16;98490.19;4110640;28;20676;-90
2023/09/06 02:35:29;;;;;;;10.20;7.33;;;;;;;16.40;92.13;98485.75;4108101;28;20636;-90
2023/09/06 02:37:52;;;;;;;12.10;6.77;;;;;;;16.36;92.00;98494.09;4111771;28;20727;-90
2023/09/06 02:40:18;;;;;;;10.10;8.30;;;;;;;16.34;92.67;98488.09;4126570;28;21209;-90
2023/09/06 02:42:41;;;;;;;9.33;7.20;;;;;;;16.32;93.17;98492.66;4114491;28;20617;-90
2023/09/06 02:44:59;;;;;;;9.37;6.97;;;;;;;16.27;92.79;98495.69;4123262;28;20640;-89
2023/09/06 02:47:28;;;;;;;9.13;7.80;;;;;;;16.25;91.73;98488.88;4121483;28;20628;-90
2023/09/06 02:49:55;;;;;;;10.37;8.40;;;;;;;16.22;93.38;98492.63;4129764;28;21217;-90
2023/09/06 02:52:20;;;;;;;9.37;7.70;;;;;;;16.21;94.02;98488.25;4107342;28;20645;-90
2023/09/06 02:54:44;;;;;;;8.47;7.40;;;;;;;16.17;92.04;98491.28;4123093;28;20636;-90
2023/09/06 02:57:07;;;;;;;11.30;7.87;;;;;;;16.13;93.76;98493.34;4107986;28;20657;-90
2023/09/06 02:59:30;;;;;;;8.60;6.80;;;;;;;16.13;92.62;98492.50;4123120;28;20626;-90
2023/09/06 03:01:47;;;;;;;10.10;7.60;;;;;;;16.12;93.38;98491.66;4126287;28;20672;-90
2023/09/06 03:04:13;;;;;;;10.23;7.87;;;;;;;16.13;92.97;98490.72;4122415;28;21110;-90
2023/09/06 03:06:37;;;;;;;11.63;8.23;;;;;;;16.15;92.76;98487.97;4122629;28;20635;-90
2023/09/06 03:09:06;;;;;;;10.73;8.33;;;;;;;16.15;92.13;98490.59;4126072;28;20765;-90
2023/09/06 03:11:14;;;;;;;12.43;7.90;;;;;;;16.14;94.48;98495.00;4140190;28;20639;-90
2023/09/06 03:13:27;;;;;;;8.30;7.50;;;;;;;16.15;93.02;98485.31;4110975;28;20806;-90
2023/09/06 03:15:34;;;;;;;13.50;7.90;;;;;;;16.13;92.80;98474.94;4107127;28;21413;-90
2023/09/06 03:17:46;;;;;;;9.90;7.23;;;;;;;16.10;94.24;98488.34;4110427;28;20701;-90
2023/09/06 03:19:53;;;;;;;8.33;7.33;;;;;;;16.05;92.10;98484.41;4125977;28;20635;-90
2023/09/06 03:22:00;;;;;;;10.00;8.27;;;;;;;16.01;93.92;98485.63;4124524;28;20677;-90
2023/09/06 03:24:14;;;;;;;10.73;7.63;;;;;;;16.01;92.33;98487.44;4140296;28;20648;-90
2023/09/06 03:26:22;;;;;;;9.93;8.00;;;;;;;16.01;92.34;98483.00;4138283;28;20671;-90
2023/09/06 03:28:34;;;;;;;8.07;7.23;;;;;;;16.01;92.96;98487.44;4118876;28;20627;-90
2023/09/06 03:30:41;;;;;;;9.60;7.20;;;;;;;16.00;92.38;98485.75;4108264;28;20639;-90
2023/09/06 03:32:56;;;;;;;8.23;7.23;;;;;;;15.99;92.83;98490.19;4109279;28;21299;-90
2023/09/06 03:35:08;;;;;;;9.07;7.77;;;;;;;16.01;92.71;98496.16;4128180;28;21131;-90
2023/09/06 03:37:23;;;;;;;8.63;7.30;;;;;;;16.04;93.36;98491.50;4110939;28;21698;-90
2023/09/06 03:39:29;;;;;;;8.77;6.67;;;;;;;16.07;92.82;98491.22;4105802;28;20629;-90
2023/09/06 03:41:34;;;;;;;10.00;7.13;;;;;;;16.07;94.07;98500.91;4106916;28;21216;-90
2023/09/06 03:43:46;;;;;;;8.43;7.30;;;;;;;16.04;93.30;98496.75;4127044;28;20680;-90
2023/09/06 03:45:58;;;;;;;9.80;7.27;;;;;;;16.03;91.80;98496.88;4121258;28;21275;-90
2023/09/06 03:48:12;;;;;;;8.77;6.90;;;;;;;15.97;92.74;98484.22;4110755;28;21215;-90
2023/09/06 03:50:38;;;;;;;11.00;8.30;;;;;;;15.96;93.62;98489.63;4109159;28;21277;-90
2023/09/06 03:53:04;;;;;;;9.53;6.83;;;;;;;15.99;91.69;98492.81;4120367;28;21264;-90
2023/09/06 03:55:27;;;;;;;7.80;6.50;;;;;;;15.97;92.84;98492.13;4116621;28;21209;-90
2023/09/06 03:57:39;;;;;;;10.03;7.70;;;;;;;15.98;93.17;98496.41;4106342;28;20691;-90
2023/09/06 03:59:58;;;;;;;8.20;6.80;;;;;;;15.98;93.17;98496.41;4109211;28;20675;-90
2023/09/06 04:02:18;;;;;;;9.20;7.60;;;;;;;15.98;93.69;98499.03;4122839;28;20677;-90
2023/09/06 04:04:37;;;;;;;8.83;7.30;;;;;;;15.96;91.71;98497.53;4118635;28;20671;-90
2023/09/06 04:06:57;;;;;;;8.20;7.30;;;;;;;15.94;92.49;98500.28;4119286;28;20663;-90
2023/09/06 04:09:13;;;;;;;7.97;6.87;;;;;;;15.93;91.43;98501.22;4117452;28;21472;-89
2023/09/06 04:11:19;;;;;;;8.20;6.80;;;;;;;15.89;92.77;98494.56;4120878;28;20636;-90
2023/09/06 04:13:44;;;;;;;10.03;7.10;;;;;;;15.85;92.59;98494.94;4120152;28;20652;-90
2023/09/06 04:16:09;;;;;;;9.70;7.90;;;;;;;15.79;92.55;98493.66;4124110;28;20631;-90
2023/09/06 04:18:24;;;;;;;8.57;6.70;;;;;;;15.71;92.01;98493.47;4118871;28;20652;-90
2023/09/06 04:20:36;;;;;;;9.00;7.30;;;;;;;15.65;91.35;98498.38;4109359;28;20653;-90
2023/09/06 04:23:00;;;;;;;9.43;6.93;;;;;;;15.62;92.19;98501.25;4122726;28;20629;-90
2023/09/06 04:25:09;;;;;;;8.07;7.23;;;;;;;15.60;94.15;98498.75;4115844;28;20643;-90
2023/09/06 04:27:33;;;;;;;9.27;7.80;;;;;;;15.57;92.28;98499.03;4121385;28;20634;-90
2023/09/06 04:29:45;;;;;;;9.73;7.37;;;;;;;15.57;92.13;98500.78;4106693;28;21067;-89
2023/09/06 04:31:49;;;;;;;10.97;8.00;;;;;;;15.58;93.18;98511.19;4108282;28;20635;-89
2023/09/06 04:34:13;;;;;;;8.97;7.40;;;;;;;15.55;92.76;98498.28;4112401;28;20644;-89
2023/09/06 04:36:36;;;;;;;9.77;7.33;;;;;;;15.53;93.73;98498.53;4105506;28;20632;-89
2023/09/06 04:38:56;;;;;;;9.37;7.50;;;;;;;15.47;93.33;98502.53;4119244;28;20997;-89
2023/09/06 04:41:21;;;;;;;11.50;8.17;;;;;;;15.45;92.37;98499.16;4111692;28;20695;-89
2023/09/06 04:43:48;;;;;;;9.57;8.00;;;;;;;15.46;93.01;98510.53;4120139;28;20717;-90
2023/09/06 04:46:11;;;;;;;10.00;7.80;;;;;;;15.43;93.64;98501.09;4107249;28;21080;-90
2023/09/06 04:48:34;;;;;;;9.30;7.87;;;;;;;15.41;93.65;98508.28;4111376;28;20649;-90
2023/09/06 04:50:59;;;;;;;11.00;8.53;;;;;;;15.38;94.26;98508.53;4105887;28;20632;-90
2023/09/06 04:53:23;;;;;;;10.70;8.53;;;;;;;15.36;93.52;98509.59;4120709;28;20985;-90
2023/09/06 04:55:50;;;;;;;10.20;8.00;;;;;;;15.32;92.57;98505.53;4117897;28;20654;-89
2023/09/06 04:58:20;;;;;;;11.60;7.90;;;;;;;15.28;93.58;98512.00;4119975;28;20701;-90
2023/09/06 05:00:47;;;;;;;11.40;8.27;;;;;;;15.25;92.94;98520.13;4118760;28;20644;-89
2023/09/06 05:03:11;;;;;;;9.77;8.47;;;;;;;15.22;94.59;98525.66;4108760;28;21254;-89
2023/09/06 05:05:37;;;;;;;10.97;8.17;;;;;;;15.20;93.10;98520.50;4112162;28;21308;-89
2023/09/06 05:08:00;;;;;;;9.07;7.90;;;;;;;15.26;94.54;98524.41;4120752;28;21182;-93
2023/09/06 05:10:23;;;;;;;10.00;8.47;;;;;;;15.38;93.93;98528.69;4126237;28;20635;-93
2023/09/06 05:12:47;;;;;;;12.60;9.00;;;;;;;15.46;93.15;98524.50;4108507;28;20753;-92
2023/09/06 05:15:03;;;;;;;10.97;8.80;;;;;;;15.56;93.57;98526.25;4115503;28;20644;-91
2023/09/06 05:17:26;;;;;;;9.70;8.43;;;;;;;15.72;93.02;98529.28;4104233;28;20646;-93
2023/09/06 05:19:51;;;;;;;12.20;9.00;;;;;;;15.85;93.05;98524.72;4112485;28;20630;-92
2023/09/06 05:22:15;;;;;;;9.73;8.37;;;;;;;16.00;92.57;98527.84;4118384;28;21181;-92
2023/09/06 05:24:38;;;;;;;10.53;8.67;;;;;;;16.13;91.62;98532.84;4130483;28;21215;-92
2023/09/06 05:27:01;;;;;;;10.10;9.00;;;;;;;16.28;92.47;98541.25;4109729;28;20621;-91
2023/09/06 05:29:27;;;;;;;10.23;7.80;;;;;;;16.42;91.39;98535.66;4114979;28;20639;-91
2023/09/06 05:31:51;;;;;;;12.43;8.87;;;;;;;16.56;89.82;98546.72;4111093;28;21233;-91
2023/09/06 05:34:14;;;;;;;9.93;8.03;;;;;;;16.72;89.83;98547.91;4107884;28;20768;-91
2023/09/06 05:36:38;;;;;;;10.57;8.20;;;;;;;16.88;90.31;98544.78;4122970;28;20651;-92
2023/09/06 05:39:06;;;;;;;9.80;8.40;;;;;;;16.99;88.14;98545.53;4117904;28;20719;-92
2023/09/06 05:41:29;;;;;;;9.67;7.80;;;;;;;17.13;87.02;98547.81;4115930;28;20640;-92
2023/09/06 05:43:53;;;;;;;9.83;8.30;;;;;;;17.20;87.39;98546.28;4102050;28;21278;-92
2023/09/06 05:46:17;;;;;;;9.90;8.03;;;;;;;17.32;85.16;98551.38;4108008;28;20732;-92
2023/09/06 05:49:05;;;;;;;10.27;8.30;;;;;;;17.47;86.40;98550.84;4114322;28;21181;-92
2023/09/06 05:51:20;;;;;;;10.50;8.03;;;;;;;17.67;86.98;98559.63;4103509;28;20716;-91
2023/09/06 05:53:44;;;;;;;9.00;7.33;;;;;;;17.82;85.09;98556.44;4122543;28;20634;-91
2023/09/06 05:56:08;;;;;;;9.80;8.30;;;;;;;17.98;85.19;98559.34;4131618;28;20623;-92
2023/09/06 05:58:37;;;;;;;10.67;8.93;;;;;;;18.09;84.18;98564.53;4110368;28;20745;-92
2023/09/06 06:01:02;;;;;;;8.90;7.70;;;;;;;18.26;84.61;98558.56;4123835;28;20675;-90
2023/09/06 06:03:26;;;;;;;11.20;9.00;;;;;;;18.38;83.33;98566.19;4123063;28;20728;-92
2023/09/06 06:05:51;;;;;;;9.57;7.70;;;;;;;18.53;83.76;98570.88;4121617;28;21435;-92
2023/09/06 06:08:14;;;;;;;9.43;7.90;;;;;;;18.71;83.08;98568.34;4120390;28;20629;-89
2023/09/06 06:10:38;;;;;;;9.67;7.80;;;;;;;18.85;82.02;98567.88;4115026;28;20659;-92
2023/09/06 06:13:03;;;;;;;9.90;8.00;;;;;;;18.99;81.78;98578.84;4123773;28;20760;-92
2023/09/06 06:15:26;;;;;;;9.47;8.13;;;;;;;19.17;81.51;98572.69;4113696;28;20631;-92
2023/09/06 06:17:50;;;;;;;10.07;9.07;;;;;;;19.31;80.07;98577.47;4113605;28;20631;-92
2023/09/06 06:20:17;;;;;;;11.30;8.93;;;;;;;19.47;79.85;98575.88;4105742;28;20653;-90
2023/09/06 06:22:49;;;;;;;9.23;8.20;;;;;;;19.70;81.62;98563.06;4124509;28;20659;-90
2023/09/06 06:25:12;;;;;;;10.90;8.10;;;;;;;19.90;81.42;98574.22;4130583;28;20627;-90
2023/09/06 06:27:36;;;;;;;9.07;7.83;;;;;;;20.13;81.35;98579.91;4110578;28;20679;-90
2023/09/06 06:30:00;;;;;;;10.17;8.40;;;;;;;20.34;81.04;98574.16;4125782;28;20718;-90
2023/09/06 06:32:23;;;;;;;9.00;8.10;;;;;;;20.53;79.45;98579.25;4120312;28;20630;-90
2023/09/06 06:34:31;;;;;;;9.80;8.13;;;;;;;20.66;81.13;98574.38;4107510;28;20627;-90
2023/09/06 06:36:41;;;;;;;11.47;8.37;;;;;;;20.84;82.06;98584.00;4112834;28;20731;-90
2023/09/06 06:38:58;;;;;;;8.93;7.70;;;;;;;21.00;80.94;98572.63;4128225;28;20723;-90
2023/09/06 06:41:15;;;;;;;11.50;8.30;;;;;;;21.20;81.92;98584.69;4120170;28;20995;-90
2023/09/06 06:43:33;;;;;;;9.47;8.33;;;;;;;21.37;80.24;98589.94;4112026;28;20667;-90
2023/09/06 06:45:47;;;;;;;9.03;8.10;;;;;;;21.47;78.52;98583.53;4111428;28;21042;-90
2023/09/06 06:47:51;;;;;;;8.97;8.07;;;;;;;21.60;77.16;98589.22;4119349;28;20689;-90
2023/09/06 06:49:55;;;;;;;8.93;8.03;;;;;;;21.68;76.95;98599.03;4097369;28;20674;-90
2023/09/06 06:52:00;;;;;;;10.40;8.90;;;;;;;21.74;75.90;98585.97;4121931;28;20743;-90
2023/09/06 06:54:05;;;;;;;10.07;8.03;;;;;;;21.82;75.95;98596.59;4139221;28;21286;-90
2023/09/06 06:56:08;;;;;;;9.00;8.10;;;;;;;21.93;75.88;98604.25;4110723;28;20633;-90
2023/09/06 06:58:14;;;;;;;10.17;8.47;;;;;;;22.01;76.06;98591.00;4109765;28;21008;-90
2023/09/06 07:00:18;;;;;;;10.13;7.87;;;;;;;22.15;77.73;98591.19;4110820;28;21284;-90
2023/09/06 07:02:21;;;;;;;9.57;7.33;;;;;;;22.26;74.55;98588.25;4112099;28;20641;-90
2023/09/06 07:04:24;;;;;;;10.10;8.67;;;;;;;22.27;73.70;98590.72;4125160;28;21098;-90
2023/09/06 07:06:30;;;;;;;7.73;6.93;;;;;;;22.34;73.02;98586.44;4113616;28;20680;-91
2023/09/06 07:08:36;;;;;;;15.30;8.50;;;;;;;22.41;73.16;98589.25;4121756;28;20725;-90
2023/09/06 07:10:39;;;;;;;9.07;7.57;;;;;;;22.56;73.27;98592.91;4109373;28;20680;-90
2023/09/06 07:12:42;;;;;;;13.03;7.30;;;;;;;22.69;75.64;98596.72;4112562;28;20654;-91
2023/09/06 07:14:46;;;;;;;9.07;8.17;;;;;;;22.87;74.04;98600.03;4111378;28;21203;-90
2023/09/06 07:16:49;;;;;;;9.77;7.50;;;;;;;22.96;74.85;98609.72;4112603;28;20637;-90
2023/09/06 07:18:52;;;;;;;9.33;8.13;;;;;;;23.09;73.33;98602.03;4127276;28;20661;-90
2023/09/06 07:20:58;;;;;;;8.97;6.87;;;;;;;23.19;73.33;98606.97;4124492;28;20628;-90
2023/09/06 07:23:01;;;;;;;10.07;7.60;;;;;;;23.30;72.94;98603.13;4124510;28;20682;-91
2023/09/06 07:25:08;;;;;;;9.63;7.20;;;;;;;23.39;72.59;98602.91;4124362;28;21413;-90
2023/09/06 07:27:11;;;;;;;8.57;7.27;;;;;;;23.46;71.81;98603.91;4126267;28;20650;-90
2023/09/06 07:29:13;;;;;;;7.90;6.80;;;;;;;23.53;71.77;98604.91;4119598;28;20738;-90
2023/09/06 07:31:17;;;;;;;8.77;6.10;;;;;;;23.57;72.86;98610.69;4109879;28;21227;-90
2023/09/06 07:33:21;;;;;;;7.13;6.30;;;;;;;23.74;75.21;98621.16;4125289;28;20631;-90
2023/09/06 07:35:24;;;;;;;8.07;6.93;;;;;;;23.86;72.65;98619.75;4129396;28;20707;-90
2023/09/06 07:37:27;;;;;;;8.90;6.90;;;;;;;23.96;72.33;98607.88;4126701;28;20655;-90
2023/09/06 07:39:31;;;;;;;8.90;6.77;;;;;;;24.04;72.34;98607.00;4113714;28;20652;-90
2023/09/06 07:41:35;;;;;;;7.03;6.23;;;;;;;24.17;71.78;98611.56;4124215;28;20699;-90
2023/09/06 07:43:41;;;;;;;6.70;5.90;;;;;;;24.36;70.99;98616.47;4124808;28;21229;-90
2023/09/06 07:45:44;;;;;;;6.57;5.87;;;;;;;24.55;71.44;98612.50;4119261;28;20641;-90
2023/09/06 07:47:47;;;;;;;7.60;6.50;;;;;;;24.65;69.42;98613.91;4124325;28;20629;-90
2023/09/06 07:49:51;;;;;;;8.40;5.63;;;;;;;24.80;68.72;98614.78;4105319;28;20639;-90
2023/09/06 07:51:54;;;;;;;7.17;5.63;;;;;;;24.90;67.89;98612.72;4122720;28;20642;-90
2023/09/06 07:53:57;;;;;;;6.10;5.50;;;;;;;24.98;67.30;98607.28;4120538;28;20676;-90
2023/09/06 07:56:01;;;;;;;6.50;5.90;;;;;;;25.12;68.54;98614.53;4107352;28;20671;-91
2023/09/06 07:58:06;;;;;;;6.50;5.73;;;;;;;25.21;68.71;98611.59;4121995;28;20729;-90
2023/09/06 08:00:11;;;;;;;6.27;5.67;;;;;;;25.30;67.88;98606.00;4123428;28;20674;-91
2023/09/06 08:02:17;;;;;;;7.03;6.20;;;;;;;25.38;66.54;98605.91;4122160;28;20719;-90
2023/09/06 08:04:21;;;;;;;6.40;5.70;;;;;;;25.43;67.14;98603.50;4122708;28;20677;-91
2023/09/06 08:06:25;;;;;;;5.70;5.20;;;;;;;25.49;69.96;98602.75;4100659;28;20670;-90
2023/09/06 08:08:28;;;;;;;7.83;5.80;;;;;;;25.59;66.21;98600.63;4124871;28;21254;-90
2023/09/06 08:10:32;;;;;;;5.87;5.30;;;;;;;25.61;66.72;98601.28;4101615;28;20657;-90
2023/09/06 08:12:36;;;;;;;6.30;5.63;;;;;;;25.59;66.33;98592.63;4109111;28;20640;-90
2023/09/06 08:14:42;;;;;;;6.47;5.87;;;;;;;25.63;66.52;98594.75;4126839;28;20623;-90
2023/09/06 08:16:45;;;;;;;7.00;6.30;;;;;;;25.60;65.81;98599.59;4117302;28;20620;-90
2023/09/06 08:18:48;;;;;;;6.77;6.07;;;;;;;25.59;66.27;98597.97;4119817;28;20707;-90
2023/09/06 08:20:52;;;;;;;6.73;6.10;;;;;;;25.68;68.56;98602.22;4106699;28;20667;-91
2023/09/06 08:22:55;;;;;;;6.30;5.70;;;;;;;25.77;66.14;98614.44;4116355;28;21046;-90
2023/09/06 08:24:59;;;;;;;7.00;6.00;;;;;;;25.86;66.52;98608.84;4116563;28;20635;-90
2023/09/06 08:27:05;;;;;;;7.67;6.83;;;;;;;25.99;66.19;98606.31;4100148;28;20631;-90
2023/09/06 08:29:08;;;;;;;7.83;6.23;;;;;;;26.04;65.99;98609.25;4119569;28;20777;-90
2023/09/06 08:31:13;;;;;;;6.93;5.90;;;;;;;26.10;66.68;98605.84;4101555;28;20640;-89
2023/09/06 08:33:17;;;;;;;6.43;5.83;;;;;;;26.15;65.96;98609.59;4097131;28;20637;-90
2023/09/06 08:35:20;;;;;;;8.23;6.33;;;;;;;26.09;65.54;98604.16;4123963;28;20718;-90
2023/09/06 08:37:23;;;;;;;8.40;5.93;;;;;;;26.07;65.27;98608.88;4100901;28;20629;-90
2023/09/06 08:39:26;;;;;;;6.30;5.70;;;;;;;26.15;66.60;98608.75;4118638;28;20638;-94
2023/09/06 08:41:30;;;;;;;6.30;5.70;;;;;;;26.23;66.15;98604.09;4107476;28;20647;-94
2023/09/06 08:43:36;;;;;;;6.60;5.83;;;;;;;26.28;65.91;98601.75;4107069;28;20661;-93
2023/09/06 08:45:43;;;;;;;7.93;6.60;;;;;;;26.36;67.34;98601.63;4132407;28;20753;-93
2023/09/06 08:47:48;;;;;;;6.43;5.80;;;;;;;26.49;69.56;98604.44;4126038;28;20627;-93
2023/09/06 08:49:53;;;;;;;7.00;6.27;;;;;;;26.51;65.83;98607.75;4121149;28;20633;-92
2023/09/06 08:51:59;;;;;;;9.00;5.83;;;;;;;26.52;66.21;98606.69;4124248;28;20620;-93
2023/09/06 08:54:04;;;;;;;7.40;6.43;;;;;;;26.58;66.81;98600.59;4112024;28;20628;-93
2023/09/06 08:56:08;;;;;;;7.03;6.23;;;;;;;26.56;65.41;98599.13;4122774;28;20637;-93
2023/09/06 08:58:11;;;;;;;6.70;6.00;;;;;;;26.56;64.52;98604.50;4110863;28;20664;-93
2023/09/06 09:00:16;;;;;;;6.90;6.00;;;;;;;26.50;64.82;98607.94;4123984;28;20707;-92
2023/09/06 09:02:19;;;;;;;7.17;6.30;;;;;;;26.48;66.34;98604.63;4125440;28;20643;-94
2023/09/06 09:04:24;;;;;;;7.40;6.43;;;;;;;26.57;66.62;98612.34;4116899;28;20666;-92
2023/09/06 09:06:29;;;;;;;7.10;6.40;;;;;;;26.56;66.29;98610.66;4106934;28;20641;-93
2023/09/06 09:08:32;;;;;;;6.77;6.03;;;;;;;26.55;66.65;98611.69;4108063;28;20735;-94
2023/09/06 09:10:36;;;;;;;8.40;7.60;;;;;;;26.53;67.62;98611.06;4125297;28;21168;-94
2023/09/06 09:12:39;;;;;;;6.20;5.60;;;;;;;26.54;66.70;98610.03;4132806;28;20669;-94
2023/09/06 09:14:45;;;;;;;6.37;5.73;;;;;;;26.62;67.72;98610.72;4105836;28;20681;-95
2023/09/06 09:16:55;;;;;;;6.73;6.03;;;;;;;26.68;65.61;98609.13;4119757;28;20992;-93
2023/09/06 09:18:58;;;;;;;6.70;6.00;;;;;;;26.66;66.89;98609.31;4109891;28;20633;-93
2023/09/06 09:21:04;;;;;;;6.23;5.63;;;;;;;26.69;67.09;98611.63;4113799;28;21248;-93
2023/09/06 09:23:12;;;;;;;7.20;6.13;;;;;;;26.79;68.83;98614.81;4115744;28;20648;-91
2023/09/06 09:25:23;;;;;;;6.80;6.17;;;;;;;26.94;69.32;98618.25;4122917;28;20630;-88
2023/09/06 09:27:28;;;;;;;6.87;6.17;;;;;;;26.98;67.91;98606.13;4115513;28;21223;-92
2023/09/06 09:29:31;;;;;;;7.30;6.60;;;;;;;27.11;67.43;98607.06;4123587;28;20635;-91
2023/09/06 09:31:35;;;;;;;7.63;6.27;;;;;;;27.19;67.08;98608.75;4108355;28;20635;-92
2023/09/06 09:33:39;;;;;;;7.03;5.60;;;;;;;27.13;66.75;98610.34;4120414;28;20625;-92
2023/09/06 09:35:44;;;;;;;6.70;6.00;;;;;;;27.18;65.79;98605.25;4124100;28;20663;-89
2023/09/06 09:37:52;;;;;;;7.10;6.40;;;;;;;27.19;70.05;98608.75;4109779;28;20751;-92
2023/09/06 09:39:55;;;;;;;6.43;5.83;;;;;;;27.28;68.57;98597.69;4136798;28;20676;-92
2023/09/06 09:41:59;;;;;;;7.13;6.50;;;;;;;27.37;70.54;98596.50;4122083;28;20691;-91
2023/09/06 09:44:13;;;;;;;9.27;6.30;;;;;;;27.39;66.04;98589.09;4125748;28;20639;-94
2023/09/06 09:46:27;;;;;;;7.80;6.10;;;;;;;27.36;67.11;98586.81;4106497;28;20672;-92
2023/09/06 09:48:31;;;;;;;6.17;5.57;;;;;;;27.39;66.14;98591.78;4123190;28;20967;-87
2023/09/06 09:50:35;;;;;;;6.67;5.97;;;;;;;27.42;66.64;98587.88;4127011;28;20743;-91
2023/09/06 09:52:40;;;;;;;6.40;5.80;;;;;;;27.47;68.71;98588.09;4120578;28;20716;-93
2023/09/06 09:54:50;;;;;;;6.30;5.70;;;;;;;27.55;66.93;98588.81;4113480;28;21137;-92
2023/09/06 09:57:01;;;;;;;6.60;6.00;;;;;;;27.51;65.72;98587.53;4113807;28;20663;-94
2023/09/06 09:59:05;;;;;;;6.57;5.97;;;;;;;27.60;70.82;98581.00;4119065;28;20998;-94
2023/09/06 10:01:10;;;;;;;8.93;6.33;;;;;;;27.67;69.10;98582.69;4135512;28;21218;-95
2023/09/06 10:03:15;;;;;;;6.37;5.77;;;;;;;27.67;68.67;98577.31;4131632;28;20684;-93
2023/09/06 10:05:19;;;;;;;6.20;5.60;;;;;;;27.75;69.45;98585.19;4123982;28;20706;-93
2023/09/06 10:07:24;;;;;;;7.23;6.53;;;;;;;27.79;68.31;98573.03;4121010;28;20669;-94
2023/09/06 10:09:47;;;;;;;7.03;6.40;;;;;;;27.78;66.79;98584.78;4113765;28;21097;-94
2023/09/06 10:11:50;;;;;;;6.90;5.70;;;;;;;27.82;68.11;98575.31;4126277;28;20614;-94
2023/09/06 10:13:53;;;;;;;6.20;5.37;;;;;;;27.79;65.95;98564.19;4111084;28;20644;-92
2023/09/06 10:15:59;;;;;;;6.17;5.50;;;;;;;27.80;67.11;98566.66;4111392;28;20666;-95
2023/09/06 10:18:04;;;;;;;6.40;5.80;;;;;;;27.88;67.21;98573.69;4120853;28;20644;-95
2023/09/06 10:20:12;;;;;;;7.13;6.37;;;;;;;27.99;70.05;98576.63;4100451;28;20640;-93
2023/09/06 10:22:16;;;;;;;6.53;5.47;;;;;;;27.97;65.29;98567.94;4137699;28;20678;-93
2023/09/06 10:24:19;;;;;;;5.93;5.33;;;;;;;28.04;69.09;98574.19;4108379;28;20636;-94